sensor_id;sensor_type;location;lat;lon;timestamp;pressure;altitude;pressure_sealevel;temperature;humidity
7768;BME280;3928;42.626;23.382;2023-02-11T00:01:27;95787.28;;;1.07;48.41
7768;BME280;3928;42.626;23.382;2023-02-11T00:03:55;95791.31;;;1.03;48.56
7768;BME280;3928;42.626;23.382;2023-02-11T00:06:24;95780.63;;;1.09;48.34
7768;BME280;3928;42.626;23.382;2023-02-11T00:08:52;95785.19;;;1.17;48.13
7768;BME280;3928;42.626;23.382;2023-02-11T00:11:20;95780.28;;;1.21;47.77
7768;BME280;3928;42.626;23.382;2023-02-11T00:13:50;95760.53;;;0.93;48.76
7768;BME280;3928;42.626;23.382;2023-02-11T00:16:18;95785.72;;;0.91;49.00
7768;BME280;3928;42.626;23.382;2023-02-11T00:18:46;95784.13;;;0.93;48.69
7768;BME280;3928;42.626;23.382;2023-02-11T00:21:14;95781.41;;;0.88;49.33
7768;BME280;3928;42.626;23.382;2023-02-11T00:23:43;95782.56;;;0.95;48.58
7768;BME280;3928;42.626;23.382;2023-02-11T00:26:11;95786.66;;;0.93;49.24
7768;BME280;3928;42.626;23.382;2023-02-11T00:28:38;95786.59;;;0.92;49.08
7768;BME280;3928;42.626;23.382;2023-02-11T00:31:05;95777.69;;;0.80;49.08
7768;BME280;3928;42.626;23.382;2023-02-11T00:33:32;95781.19;;;0.65;50.06
7768;BME280;3928;42.626;23.382;2023-02-11T00:36:03;95779.25;;;0.40;50.61
7768;BME280;3928;42.626;23.382;2023-02-11T00:38:30;95784.06;;;0.35;51.28
7768;BME280;3928;42.626;23.382;2023-02-11T00:40:58;95780.84;;;0.38;51.16
7768;BME280;3928;42.626;23.382;2023-02-11T00:43:25;95783.13;;;0.51;50.88
7768;BME280;3928;42.626;23.382;2023-02-11T00:45:52;95775.72;;;0.55;50.08
7768;BME280;3928;42.626;23.382;2023-02-11T00:48:19;95783.97;;;0.71;50.07
7768;BME280;3928;42.626;23.382;2023-02-11T00:50:45;95709.97;;;0.35;49.47
7768;BME280;3928;42.626;23.382;2023-02-11T00:53:12;95776.41;;;0.71;49.98
7768;BME280;3928;42.626;23.382;2023-02-11T00:55:39;95781.69;;;0.75;49.48
7768;BME280;3928;42.626;23.382;2023-02-11T00:58:07;95775.69;;;0.73;48.89
7768;BME280;3928;42.626;23.382;2023-02-11T01:00:34;95778.28;;;0.75;48.70
7768;BME280;3928;42.626;23.382;2023-02-11T01:03:01;95754.22;;;0.64;48.18
7768;BME280;3928;42.626;23.382;2023-02-11T01:05:28;95756.69;;;0.62;49.51
7768;BME280;3928;42.626;23.382;2023-02-11T01:07:55;95761.56;;;0.59;49.66
7768;BME280;3928;42.626;23.382;2023-02-11T01:10:22;95762.47;;;0.60;49.25
7768;BME280;3928;42.626;23.382;2023-02-11T01:12:49;95757.13;;;0.53;49.86
7768;BME280;3928;42.626;23.382;2023-02-11T01:15:18;95765.06;;;0.61;49.47
7768;BME280;3928;42.626;23.382;2023-02-11T01:17:45;95750.59;;;0.58;49.52
7768;BME280;3928;42.626;23.382;2023-02-11T01:20:16;95752.34;;;0.60;49.65
7768;BME280;3928;42.626;23.382;2023-02-11T01:22:44;95760.00;;;0.61;49.99
7768;BME280;3928;42.626;23.382;2023-02-11T01:25:11;95752.34;;;0.60;50.12
7768;BME280;3928;42.626;23.382;2023-02-11T01:27:38;95748.28;;;0.63;49.52
7768;BME280;3928;42.626;23.382;2023-02-11T01:30:07;95755.94;;;0.65;49.74
7768;BME280;3928;42.626;23.382;2023-02-11T01:32:36;95763.13;;;0.75;49.69
7768;BME280;3928;42.626;23.382;2023-02-11T01:35:03;95762.22;;;0.73;48.55
7768;BME280;3928;42.626;23.382;2023-02-11T01:40:17;95755.41;;;0.52;47.97
7768;BME280;3928;42.626;23.382;2023-02-11T01:42:43;95747.34;;;0.42;48.95
7768;BME280;3928;42.626;23.382;2023-02-11T01:45:41;95751.78;;;0.47;49.01
7768;BME280;3928;42.626;23.382;2023-02-11T01:48:18;95756.94;;;0.49;49.09
7768;BME280;3928;42.626;23.382;2023-02-11T01:50:48;95743.50;;;0.50;49.16
7768;BME280;3928;42.626;23.382;2023-02-11T01:53:15;95744.00;;;0.43;48.41
7768;BME280;3928;42.626;23.382;2023-02-11T01:56:00;95747.41;;;0.43;48.57
7768;BME280;3928;42.626;23.382;2023-02-11T01:58:46;95753.75;;;0.35;48.72
7768;BME280;3928;42.626;23.382;2023-02-11T02:01:16;95749.38;;;0.31;48.47
7768;BME280;3928;42.626;23.382;2023-02-11T02:03:47;95747.53;;;0.27;49.21
7768;BME280;3928;42.626;23.382;2023-02-11T02:06:21;95748.44;;;0.29;48.99
7768;BME280;3928;42.626;23.382;2023-02-11T02:08:54;95722.78;;;0.20;47.99
7768;BME280;3928;42.626;23.382;2023-02-11T02:11:22;95739.28;;;0.31;48.53
7768;BME280;3928;42.626;23.382;2023-02-11T02:13:50;95736.69;;;0.29;48.46
7768;BME280;3928;42.626;23.382;2023-02-11T02:16:18;95740.75;;;0.26;47.42
7768;BME280;3928;42.626;23.382;2023-02-11T02:18:53;95740.13;;;0.32;47.96
7768;BME280;3928;42.626;23.382;2023-02-11T02:21:38;95735.53;;;0.23;47.56
7768;BME280;3928;42.626;23.382;2023-02-11T02:24:43;95744.13;;;0.26;47.48
7768;BME280;3928;42.626;23.382;2023-02-11T02:27:28;95745.63;;;0.23;47.84
7768;BME280;3928;42.626;23.382;2023-02-11T02:33:24;95749.56;;;-0.02;48.31
7768;BME280;3928;42.626;23.382;2023-02-11T02:36:03;95742.16;;;0.02;48.02
7768;BME280;3928;42.626;23.382;2023-02-11T02:38:36;95736.31;;;0.03;47.82
7768;BME280;3928;42.626;23.382;2023-02-11T02:41:07;95747.59;;;0.11;47.84
7768;BME280;3928;42.626;23.382;2023-02-11T02:43:40;95739.97;;;0.09;48.13
7768;BME280;3928;42.626;23.382;2023-02-11T02:46:13;95741.84;;;0.13;47.81
7768;BME280;3928;42.626;23.382;2023-02-11T02:48:42;95727.28;;;0.08;47.18
7768;BME280;3928;42.626;23.382;2023-02-11T02:51:33;95738.72;;;0.19;47.51
7768;BME280;3928;42.626;23.382;2023-02-11T02:57:10;95738.28;;;0.10;47.53
7768;BME280;3928;42.626;23.382;2023-02-11T02:59:51;95743.22;;;0.07;47.03
7768;BME280;3928;42.626;23.382;2023-02-11T03:02:25;95750.78;;;0.07;47.37
7768;BME280;3928;42.626;23.382;2023-02-11T03:05:02;95753.91;;;0.01;47.00
7768;BME280;3928;42.626;23.382;2023-02-11T03:07:36;95732.78;;;-0.19;47.59
7768;BME280;3928;42.626;23.382;2023-02-11T03:10:09;95748.56;;;-0.23;47.73
7768;BME280;3928;42.626;23.382;2023-02-11T03:12:38;95744.00;;;-0.12;48.05
7768;BME280;3928;42.626;23.382;2023-02-11T03:15:08;95744.09;;;-0.11;47.74
7768;BME280;3928;42.626;23.382;2023-02-11T03:17:40;95759.66;;;-0.02;47.74
7768;BME280;3928;42.626;23.382;2023-02-11T03:20:12;95731.97;;;-0.18;47.72
7768;BME280;3928;42.626;23.382;2023-02-11T03:22:45;95756.06;;;-0.07;48.01
7768;BME280;3928;42.626;23.382;2023-02-11T03:25:13;95752.66;;;-0.07;48.23
7768;BME280;3928;42.626;23.382;2023-02-11T03:27:45;95751.50;;;-0.14;48.52
7768;BME280;3928;42.626;23.382;2023-02-11T03:30:15;95744.41;;;-0.22;47.94
7768;BME280;3928;42.626;23.382;2023-02-11T03:32:48;95748.03;;;-0.51;48.74
7768;BME280;3928;42.626;23.382;2023-02-11T03:35:21;95742.66;;;-0.41;49.01
7768;BME280;3928;42.626;23.382;2023-02-11T03:37:51;95732.69;;;-0.38;48.70
7768;BME280;3928;42.626;23.382;2023-02-11T03:40:23;95745.09;;;-0.25;49.00
7768;BME280;3928;42.626;23.382;2023-02-11T03:42:53;95744.22;;;-0.25;48.45
7768;BME280;3928;42.626;23.382;2023-02-11T03:45:23;95729.75;;;-0.30;47.59
7768;BME280;3928;42.626;23.382;2023-02-11T03:47:53;95731.09;;;-0.36;48.58
7768;BME280;3928;42.626;23.382;2023-02-11T03:50:23;95749.00;;;-0.32;47.52
7768;BME280;3928;42.626;23.382;2023-02-11T03:52:52;95744.69;;;-0.34;47.39
7768;BME280;3928;42.626;23.382;2023-02-11T03:55:22;95709.28;;;-0.53;47.39
7768;BME280;3928;42.626;23.382;2023-02-11T03:57:51;95719.00;;;-0.43;46.85
7768;BME280;3928;42.626;23.382;2023-02-11T04:00:18;95733.72;;;-0.35;47.23
7768;BME280;3928;42.626;23.382;2023-02-11T04:02:45;95735.06;;;-0.41;47.92
7768;BME280;3928;42.626;23.382;2023-02-11T04:05:15;95740.13;;;-0.41;47.75
7768;BME280;3928;42.626;23.382;2023-02-11T04:07:43;95739.06;;;-0.46;47.57
7768;BME280;3928;42.626;23.382;2023-02-11T04:10:11;95739.84;;;-0.47;47.30
7768;BME280;3928;42.626;23.382;2023-02-11T04:12:38;95746.44;;;-0.49;47.25
7768;BME280;3928;42.626;23.382;2023-02-11T04:15:05;95746.50;;;-0.48;47.50
7768;BME280;3928;42.626;23.382;2023-02-11T04:17:33;95739.75;;;-0.49;47.70
7768;BME280;3928;42.626;23.382;2023-02-11T04:20:00;95738.59;;;-0.55;47.76
7768;BME280;3928;42.626;23.382;2023-02-11T04:22:27;95742.72;;;-0.57;47.66
7768;BME280;3928;42.626;23.382;2023-02-11T04:24:55;95749.16;;;-0.63;48.54
7768;BME280;3928;42.626;23.382;2023-02-11T04:27:22;95739.88;;;-0.64;48.32
7768;BME280;3928;42.626;23.382;2023-02-11T04:29:49;95722.16;;;-0.65;48.46
7768;BME280;3928;42.626;23.382;2023-02-11T04:32:16;95728.19;;;-0.62;47.73
7768;BME280;3928;42.626;23.382;2023-02-11T04:34:42;95738.59;;;-0.55;47.44
7768;BME280;3928;42.626;23.382;2023-02-11T04:37:09;95744.13;;;-0.63;48.04
7768;BME280;3928;42.626;23.382;2023-02-11T04:39:36;95738.28;;;-0.62;48.44
7768;BME280;3928;42.626;23.382;2023-02-11T04:42:04;95736.69;;;-0.60;47.93
7768;BME280;3928;42.626;23.382;2023-02-11T04:44:31;95730.72;;;-0.62;47.42
7768;BME280;3928;42.626;23.382;2023-02-11T04:46:58;95725.41;;;-0.68;47.34
7768;BME280;3928;42.626;23.382;2023-02-11T04:49:25;95737.59;;;-0.93;48.15
7768;BME280;3928;42.626;23.382;2023-02-11T04:51:52;95727.19;;;-0.99;48.48
7768;BME280;3928;42.626;23.382;2023-02-11T04:54:19;95731.59;;;-0.95;48.40
7768;BME280;3928;42.626;23.382;2023-02-11T04:56:46;95740.13;;;-0.93;48.52
7768;BME280;3928;42.626;23.382;2023-02-11T04:59:16;95730.97;;;-0.91;48.63
7768;BME280;3928;42.626;23.382;2023-02-11T05:01:43;95724.72;;;-0.81;48.53
7768;BME280;3928;42.626;23.382;2023-02-11T05:04:10;95723.16;;;-0.79;48.40
7768;BME280;3928;42.626;23.382;2023-02-11T05:06:37;95728.53;;;-0.72;47.80
7768;BME280;3928;42.626;23.382;2023-02-11T05:09:05;95717.25;;;-0.80;47.44
7768;BME280;3928;42.626;23.382;2023-02-11T05:11:32;95726.69;;;-0.76;48.07
7768;BME280;3928;42.626;23.382;2023-02-11T05:13:59;95730.00;;;-0.77;47.88
7768;BME280;3928;42.626;23.382;2023-02-11T05:16:27;95724.00;;;-0.79;47.39
7768;BME280;3928;42.626;23.382;2023-02-11T05:18:54;95723.00;;;-0.82;47.57
7768;BME280;3928;42.626;23.382;2023-02-11T05:21:21;95714.47;;;-0.84;47.76
7768;BME280;3928;42.626;23.382;2023-02-11T05:23:48;95721.75;;;-0.39;76.96
7768;BME280;3928;42.626;23.382;2023-02-11T05:26:15;95714.69;;;-0.28;50.76
7768;BME280;3928;42.626;23.382;2023-02-11T05:28:43;95719.16;;;-0.22;48.34
7768;BME280;3928;42.626;23.382;2023-02-11T05:31:10;95719.88;;;-0.25;47.05
7768;BME280;3928;42.626;23.382;2023-02-11T05:33:40;95726.38;;;-0.30;47.03
7768;BME280;3928;42.626;23.382;2023-02-11T05:36:10;95736.00;;;-0.39;47.19
7768;BME280;3928;42.626;23.382;2023-02-11T05:38:38;95711.78;;;-0.53;47.19
7768;BME280;3928;42.626;23.382;2023-02-11T05:41:05;95724.19;;;-0.58;47.72
7768;BME280;3928;42.626;23.382;2023-02-11T05:43:32;95716.53;;;-0.60;47.51
7768;BME280;3928;42.626;23.382;2023-02-11T05:46:01;95707.75;;;-0.68;46.66
7768;BME280;3928;42.626;23.382;2023-02-11T05:48:28;95722.16;;;-0.65;47.57
7768;BME280;3928;42.626;23.382;2023-02-11T05:50:56;95723.59;;;-0.70;47.68
7768;BME280;3928;42.626;23.382;2023-02-11T05:53:23;95730.13;;;-0.74;47.49
7768;BME280;3928;42.626;23.382;2023-02-11T05:55:49;95716.06;;;-0.86;47.51
7768;BME280;3928;42.626;23.382;2023-02-11T05:58:16;95725.28;;;-0.87;47.28
7768;BME280;3928;42.626;23.382;2023-02-11T06:00:43;95725.00;;;-0.93;47.83
7768;BME280;3928;42.626;23.382;2023-02-11T06:03:10;95735.22;;;-0.90;47.95
7768;BME280;3928;42.626;23.382;2023-02-11T06:05:37;95713.66;;;-1.01;48.11
7768;BME280;3928;42.626;23.382;2023-02-11T06:08:06;95735.38;;;-0.87;48.25
7768;BME280;3928;42.626;23.382;2023-02-11T06:10:32;95728.97;;;-0.46;80.16
7768;BME280;3928;42.626;23.382;2023-02-11T06:13:00;95727.53;;;0.90;94.04
7768;BME280;3928;42.626;23.382;2023-02-11T06:15:27;95727.88;;;1.58;62.20
7768;BME280;3928;42.626;23.382;2023-02-11T06:17:54;95722.88;;;1.81;46.48
7768;BME280;3928;42.626;23.382;2023-02-11T06:20:21;95731.69;;;1.69;44.92
7768;BME280;3928;42.626;23.382;2023-02-11T06:22:48;95728.63;;;1.56;44.00
7768;BME280;3928;42.626;23.382;2023-02-11T06:25:16;95729.34;;;1.32;42.65
7768;BME280;3928;42.626;23.382;2023-02-11T06:27:43;95732.72;;;0.93;42.88
7768;BME280;3928;42.626;23.382;2023-02-11T06:30:10;95741.13;;;0.72;43.64
7768;BME280;3928;42.626;23.382;2023-02-11T06:32:37;95738.13;;;0.62;44.08
7768;BME280;3928;42.626;23.382;2023-02-11T06:35:04;95725.03;;;0.51;44.27
7768;BME280;3928;42.626;23.382;2023-02-11T06:37:32;95739.44;;;0.53;44.87
7768;BME280;3928;42.626;23.382;2023-02-11T06:39:59;95733.53;;;0.53;45.47
7768;BME280;3928;42.626;23.382;2023-02-11T06:42:27;95731.75;;;0.50;45.38
7768;BME280;3928;42.626;23.382;2023-02-11T06:44:54;95735.94;;;0.50;45.42
7768;BME280;3928;42.626;23.382;2023-02-11T06:47:21;95737.44;;;0.46;46.40
7768;BME280;3928;42.626;23.382;2023-02-11T06:49:47;95730.94;;;0.51;46.82
7768;BME280;3928;42.626;23.382;2023-02-11T06:52:14;95736.31;;;0.59;46.44
7768;BME280;3928;42.626;23.382;2023-02-11T06:54:41;95750.75;;;0.62;46.90
7768;BME280;3928;42.626;23.382;2023-02-11T06:57:08;95746.75;;;0.67;47.45
7768;BME280;3928;42.626;23.382;2023-02-11T06:59:36;95749.81;;;0.79;47.10
7768;BME280;3928;42.626;23.382;2023-02-11T07:02:02;95745.56;;;0.97;46.89
7768;BME280;3928;42.626;23.382;2023-02-11T07:04:29;95715.47;;;1.03;46.49
7768;BME280;3928;42.626;23.382;2023-02-11T07:06:56;95739.34;;;1.50;45.66
7768;BME280;3928;42.626;23.382;2023-02-11T07:09:23;95744.53;;;1.74;45.57
7768;BME280;3928;42.626;23.382;2023-02-11T07:11:50;95739.44;;;1.95;45.75
7768;BME280;3928;42.626;23.382;2023-02-11T07:14:16;95723.97;;;2.10;45.19
7768;BME280;3928;42.626;23.382;2023-02-11T07:16:45;95738.06;;;2.48;44.20
7768;BME280;3928;42.626;23.382;2023-02-11T07:19:11;95723.31;;;2.60;43.95
7768;BME280;3928;42.626;23.382;2023-02-11T07:21:38;95741.59;;;2.98;44.43
7768;BME280;3928;42.626;23.382;2023-02-11T07:24:06;95730.63;;;3.22;43.49
7768;BME280;3928;42.626;23.382;2023-02-11T07:26:33;95727.97;;;3.43;43.13
7768;BME280;3928;42.626;23.382;2023-02-11T07:29:01;95722.69;;;3.64;42.64
7768;BME280;3928;42.626;23.382;2023-02-11T07:31:28;95724.06;;;3.80;42.00
7768;BME280;3928;42.626;23.382;2023-02-11T07:33:58;95728.63;;;3.65;41.77
7768;BME280;3928;42.626;23.382;2023-02-11T07:36:26;95713.31;;;3.62;41.96
7768;BME280;3928;42.626;23.382;2023-02-11T07:38:53;95714.88;;;3.84;41.78
7768;BME280;3928;42.626;23.382;2023-02-11T07:41:22;95709.88;;;3.87;41.72
7768;BME280;3928;42.626;23.382;2023-02-11T07:43:49;95710.81;;;3.90;42.02
7768;BME280;3928;42.626;23.382;2023-02-11T07:46:18;95711.19;;;4.02;41.82
7768;BME280;3928;42.626;23.382;2023-02-11T07:48:46;95707.88;;;4.03;41.04
7768;BME280;3928;42.626;23.382;2023-02-11T07:51:16;95708.94;;;4.11;40.79
7768;BME280;3928;42.626;23.382;2023-02-11T07:53:43;95688.53;;;4.08;40.14
7768;BME280;3928;42.626;23.382;2023-02-11T07:56:12;95713.31;;;4.16;40.87
7768;BME280;3928;42.626;23.382;2023-02-11T07:58:39;95704.78;;;4.14;40.15
7768;BME280;3928;42.626;23.382;2023-02-11T08:01:09;95703.03;;;4.13;40.87
7768;BME280;3928;42.626;23.382;2023-02-11T08:03:38;95703.00;;;4.11;40.39
7768;BME280;3928;42.626;23.382;2023-02-11T08:06:08;95694.44;;;4.07;40.61
7768;BME280;3928;42.626;23.382;2023-02-11T08:08:36;95682.19;;;3.94;40.26
7768;BME280;3928;42.626;23.382;2023-02-11T08:11:07;95698.78;;;3.83;40.42
7768;BME280;3928;42.626;23.382;2023-02-11T08:13:34;95692.13;;;3.88;41.02
7768;BME280;3928;42.626;23.382;2023-02-11T08:16:01;95679.44;;;3.88;40.84
7768;BME280;3928;42.626;23.382;2023-02-11T08:18:29;95695.59;;;3.90;40.16
7768;BME280;3928;42.626;23.382;2023-02-11T08:20:55;95695.19;;;3.78;40.75
7768;BME280;3928;42.626;23.382;2023-02-11T08:23:22;95683.72;;;3.62;41.12
7768;BME280;3928;42.626;23.382;2023-02-11T08:25:52;95659.56;;;3.48;40.34
7768;BME280;3928;42.626;23.382;2023-02-11T08:28:19;95690.91;;;3.75;40.50
7768;BME280;3928;42.626;23.382;2023-02-11T08:30:46;95684.66;;;3.66;41.06
7768;BME280;3928;42.626;23.382;2023-02-11T08:33:12;95692.63;;;3.76;40.76
7768;BME280;3928;42.626;23.382;2023-02-11T08:35:39;95692.19;;;3.90;40.15
7768;BME280;3928;42.626;23.382;2023-02-11T08:38:06;95693.34;;;3.99;40.00
7768;BME280;3928;42.626;23.382;2023-02-11T08:40:33;95690.03;;;3.75;40.16
7768;BME280;3928;42.626;23.382;2023-02-11T08:43:01;95693.78;;;3.86;40.54
7768;BME280;3928;42.626;23.382;2023-02-11T08:45:28;95696.34;;;3.61;41.33
7768;BME280;3928;42.626;23.382;2023-02-11T08:47:55;95667.31;;;3.52;40.77
7768;BME280;3928;42.626;23.382;2023-02-11T08:50:21;95697.03;;;3.82;41.27
7768;BME280;3928;42.626;23.382;2023-02-11T08:52:48;95705.09;;;3.69;40.09
7768;BME280;3928;42.626;23.382;2023-02-11T08:55:16;95699.81;;;3.63;40.27
7768;BME280;3928;42.626;23.382;2023-02-11T08:57:43;95691.72;;;3.74;39.76
7768;BME280;3928;42.626;23.382;2023-02-11T09:00:13;95700.56;;;3.87;39.79
7768;BME280;3928;42.626;23.382;2023-02-11T09:02:41;95700.91;;;3.44;40.54
7768;BME280;3928;42.626;23.382;2023-02-11T09:05:08;95698.59;;;3.01;41.91
7768;BME280;3928;42.626;23.382;2023-02-11T09:07:35;95690.13;;;3.26;41.95
7768;BME280;3928;42.626;23.382;2023-02-11T09:10:02;95695.41;;;3.57;41.94
7768;BME280;3928;42.626;23.382;2023-02-11T09:12:30;95684.78;;;3.69;42.05
7768;BME280;3928;42.626;23.382;2023-02-11T09:14:58;95698.91;;;3.88;41.90
7768;BME280;3928;42.626;23.382;2023-02-11T09:17:26;95689.34;;;4.07;41.10
7768;BME280;3928;42.626;23.382;2023-02-11T09:19:52;95668.22;;;3.80;40.88
7768;BME280;3928;42.626;23.382;2023-02-11T09:22:19;95682.03;;;4.17;41.51
7768;BME280;3928;42.626;23.382;2023-02-11T09:24:46;95684.13;;;4.31;40.95
7768;BME280;3928;42.626;23.382;2023-02-11T09:27:13;95677.19;;;4.54;40.31
7768;BME280;3928;42.626;23.382;2023-02-11T09:29:39;95679.19;;;4.66;39.87
7768;BME280;3928;42.626;23.382;2023-02-11T09:32:06;95669.34;;;4.77;40.34
7768;BME280;3928;42.626;23.382;2023-02-11T09:34:34;95665.09;;;4.77;40.62
7768;BME280;3928;42.626;23.382;2023-02-11T09:37:01;95671.78;;;5.05;40.50
7768;BME280;3928;42.626;23.382;2023-02-11T09:39:28;95668.72;;;5.18;39.03
7768;BME280;3928;42.626;23.382;2023-02-11T09:42:24;95667.50;;;5.36;39.18
7768;BME280;3928;42.626;23.382;2023-02-11T09:44:55;95657.09;;;5.63;37.96
7768;BME280;3928;42.626;23.382;2023-02-11T09:47:28;95652.59;;;5.51;38.18
7768;BME280;3928;42.626;23.382;2023-02-11T09:49:59;95646.56;;;5.83;37.40
7768;BME280;3928;42.626;23.382;2023-02-11T09:52:36;95641.34;;;6.15;37.49
7768;BME280;3928;42.626;23.382;2023-02-11T09:55:14;95636.72;;;6.38;36.49
7768;BME280;3928;42.626;23.382;2023-02-11T09:57:43;95630.63;;;6.30;36.16
7768;BME280;3928;42.626;23.382;2023-02-11T10:00:20;95634.41;;;6.49;36.57
7768;BME280;3928;42.626;23.382;2023-02-11T10:03:20;95626.69;;;6.89;35.06
7768;BME280;3928;42.626;23.382;2023-02-11T10:06:12;95617.69;;;7.10;35.25
7768;BME280;3928;42.626;23.382;2023-02-11T10:08:51;95616.16;;;7.19;34.36
7768;BME280;3928;42.626;23.382;2023-02-11T10:11:26;95606.34;;;7.42;33.92
7768;BME280;3928;42.626;23.382;2023-02-11T10:14:03;95603.72;;;7.38;34.25
7768;BME280;3928;42.626;23.382;2023-02-11T10:16:44;95600.53;;;7.52;34.72
7768;BME280;3928;42.626;23.382;2023-02-11T10:19:25;95591.84;;;7.96;34.04
7768;BME280;3928;42.626;23.382;2023-02-11T10:22:04;95588.13;;;8.37;34.94
7768;BME280;3928;42.626;23.382;2023-02-11T10:24:33;95583.28;;;8.60;33.00
7768;BME280;3928;42.626;23.382;2023-02-11T10:27:01;95574.84;;;8.02;33.72
7768;BME280;3928;42.626;23.382;2023-02-11T10:29:35;95565.88;;;8.32;32.91
7768;BME280;3928;42.626;23.382;2023-02-11T10:32:11;95555.03;;;8.51;33.13
7768;BME280;3928;42.626;23.382;2023-02-11T10:34:41;95550.06;;;8.63;33.12
7768;BME280;3928;42.626;23.382;2023-02-11T10:37:11;95545.59;;;8.44;32.90
7768;BME280;3928;42.626;23.382;2023-02-11T10:39:39;95530.81;;;8.21;32.88
7768;BME280;3928;42.626;23.382;2023-02-11T10:42:10;95528.38;;;8.34;33.41
7768;BME280;3928;42.626;23.382;2023-02-11T10:44:40;95527.44;;;8.27;32.15
7768;BME280;3928;42.626;23.382;2023-02-11T10:47:13;95526.81;;;8.42;31.73
7768;BME280;3928;42.626;23.382;2023-02-11T10:49:44;95510.16;;;8.81;31.10
7768;BME280;3928;42.626;23.382;2023-02-11T10:52:17;95503.03;;;9.52;30.96
7768;BME280;3928;42.626;23.382;2023-02-11T10:54:59;95494.88;;;10.23;30.75
7768;BME280;3928;42.626;23.382;2023-02-11T10:57:29;95492.50;;;11.03;28.83
7768;BME280;3928;42.626;23.382;2023-02-11T10:59:58;95485.59;;;11.55;27.62
7768;BME280;3928;42.626;23.382;2023-02-11T11:02:28;95488.13;;;11.96;27.80
7768;BME280;3928;42.626;23.382;2023-02-11T11:05:00;95481.91;;;12.48;26.80
7768;BME280;3928;42.626;23.382;2023-02-11T11:07:30;95476.47;;;12.95;25.76
7768;BME280;3928;42.626;23.382;2023-02-11T11:10:00;95465.88;;;13.35;25.57
7768;BME280;3928;42.626;23.382;2023-02-11T11:12:31;95484.41;;;13.72;25.06
7768;BME280;3928;42.626;23.382;2023-02-11T11:15:01;95482.16;;;13.40;25.13
7768;BME280;3928;42.626;23.382;2023-02-11T11:17:28;95481.75;;;12.75;24.93
7768;BME280;3928;42.626;23.382;2023-02-11T11:20:20;95476.84;;;12.33;25.34
7768;BME280;3928;42.626;23.382;2023-02-11T11:22:50;95470.16;;;11.86;25.56
7768;BME280;3928;42.626;23.382;2023-02-11T11:25:22;95467.63;;;11.48;25.64
7768;BME280;3928;42.626;23.382;2023-02-11T11:27:52;95469.28;;;11.70;25.91
7768;BME280;3928;42.626;23.382;2023-02-11T11:30:21;95467.53;;;12.01;26.10
7768;BME280;3928;42.626;23.382;2023-02-11T11:32:49;95472.56;;;12.25;25.13
7768;BME280;3928;42.626;23.382;2023-02-11T11:35:22;95468.34;;;12.12;24.96
7768;BME280;3928;42.626;23.382;2023-02-11T11:37:54;95467.22;;;12.62;25.41
7768;BME280;3928;42.626;23.382;2023-02-11T11:40:23;95462.63;;;13.08;24.98
7768;BME280;3928;42.626;23.382;2023-02-11T11:43:05;95455.19;;;12.69;24.80
7768;BME280;3928;42.626;23.382;2023-02-11T11:45:32;95449.84;;;12.90;24.61
7768;BME280;3928;42.626;23.382;2023-02-11T11:48:02;95450.47;;;13.27;25.17
7768;BME280;3928;42.626;23.382;2023-02-11T11:50:34;95450.13;;;13.64;23.94
7768;BME280;3928;42.626;23.382;2023-02-11T11:53:11;95438.72;;;13.83;23.80
7768;BME280;3928;42.626;23.382;2023-02-11T11:55:43;95442.66;;;14.15;24.05
7768;BME280;3928;42.626;23.382;2023-02-11T11:58:14;95442.84;;;14.67;23.35
7768;BME280;3928;42.626;23.382;2023-02-11T12:00:51;95379.66;;;14.88;22.72
7768;BME280;3928;42.626;23.382;2023-02-11T12:03:39;95425.63;;;15.72;22.36
7768;BME280;3928;42.626;23.382;2023-02-11T12:06:20;95422.03;;;15.81;22.43
7768;BME280;3928;42.626;23.382;2023-02-11T12:09:02;95414.34;;;16.20;21.79
7768;BME280;3928;42.626;23.382;2023-02-11T12:11:35;95403.38;;;16.07;21.59
7768;BME280;3928;42.626;23.382;2023-02-11T12:14:17;95417.66;;;16.26;22.06
7768;BME280;3928;42.626;23.382;2023-02-11T12:16:54;95395.44;;;16.55;21.84
7768;BME280;3928;42.626;23.382;2023-02-11T12:19:42;95395.38;;;16.59;21.34
7768;BME280;3928;42.626;23.382;2023-02-11T12:22:28;95395.03;;;16.75;21.19
7768;BME280;3928;42.626;23.382;2023-02-11T12:25:11;95399.00;;;17.25;21.01
7768;BME280;3928;42.626;23.382;2023-02-11T12:27:49;95383.25;;;17.33;20.70
7768;BME280;3928;42.626;23.382;2023-02-11T12:30:37;95374.06;;;17.52;21.10
7768;BME280;3928;42.626;23.382;2023-02-11T12:33:13;95367.09;;;18.18;20.60
7768;BME280;3928;42.626;23.382;2023-02-11T12:35:49;95363.91;;;18.37;20.11
7768;BME280;3928;42.626;23.382;2023-02-11T12:38:33;95358.34;;;18.78;19.99
7768;BME280;3928;42.626;23.382;2023-02-11T12:41:20;95364.19;;;19.12;19.35
7768;BME280;3928;42.626;23.382;2023-02-11T12:44:09;95365.41;;;19.53;19.28
7768;BME280;3928;42.626;23.382;2023-02-11T12:46:44;95359.31;;;19.79;18.79
7768;BME280;3928;42.626;23.382;2023-02-11T12:52:12;95359.06;;;19.36;18.30
7768;BME280;3928;42.626;23.382;2023-02-11T12:54:47;95353.75;;;19.12;19.10
7768;BME280;3928;42.626;23.382;2023-02-11T12:57:22;95339.16;;;18.82;19.00
7768;BME280;3928;42.626;23.382;2023-02-11T12:59:57;95348.53;;;18.30;18.53
7768;BME280;3928;42.626;23.382;2023-02-11T13:02:32;95351.22;;;17.66;19.14
7768;BME280;3928;42.626;23.382;2023-02-11T13:05:04;95335.06;;;16.88;19.46
7768;BME280;3928;42.626;23.382;2023-02-11T13:07:38;95336.31;;;17.40;19.44
7768;BME280;3928;42.626;23.382;2023-02-11T13:10:21;95340.84;;;17.97;19.17
7768;BME280;3928;42.626;23.382;2023-02-11T13:12:53;95334.34;;;18.69;18.94
7768;BME280;3928;42.626;23.382;2023-02-11T13:15:39;95324.78;;;19.23;18.24
7768;BME280;3928;42.626;23.382;2023-02-11T13:18:16;95337.13;;;19.93;18.14
7768;BME280;3928;42.626;23.382;2023-02-11T13:20:50;95331.66;;;20.46;17.60
7768;BME280;3928;42.626;23.382;2023-02-11T13:23:22;95338.41;;;20.73;17.37
7768;BME280;3928;42.626;23.382;2023-02-11T13:25:55;95328.47;;;20.61;16.75
7768;BME280;3928;42.626;23.382;2023-02-11T13:28:31;95321.59;;;20.80;17.31
7768;BME280;3928;42.626;23.382;2023-02-11T13:31:02;95320.00;;;21.18;17.09
7768;BME280;3928;42.626;23.382;2023-02-11T13:33:34;95315.28;;;21.28;16.67
7768;BME280;3928;42.626;23.382;2023-02-11T13:36:13;95302.75;;;21.36;16.46
7768;BME280;3928;42.626;23.382;2023-02-11T13:38:50;95309.94;;;21.31;16.42
7768;BME280;3928;42.626;23.382;2023-02-11T13:41:37;95321.53;;;21.24;16.80
7768;BME280;3928;42.626;23.382;2023-02-11T13:44:20;95324.31;;;21.41;16.29
7768;BME280;3928;42.626;23.382;2023-02-11T13:46:51;95323.84;;;21.52;16.51
7768;BME280;3928;42.626;23.382;2023-02-11T13:49:22;95305.63;;;21.71;16.16